createdAt,value
2019-03-20T00:03:33.604Z,2.90
2019-03-20T00:06:16.464Z,2.90
2019-03-20T00:08:58.352Z,2.90
2019-03-20T00:11:41.153Z,2.90
2019-03-20T00:14:23.805Z,2.80
2019-03-20T00:17:06.231Z,2.80
2019-03-20T00:19:48.025Z,2.70
2019-03-20T00:22:30.168Z,2.80
2019-03-20T00:25:12.321Z,2.70
2019-03-20T00:27:54.716Z,2.80
2019-03-20T00:30:36.393Z,2.80
2019-03-20T00:33:18.821Z,2.70
2019-03-20T00:36:01.232Z,2.80
2019-03-20T00:38:43.227Z,2.90
2019-03-20T00:41:25.401Z,2.80
2019-03-20T00:44:07.742Z,2.70
2019-03-20T00:46:50.060Z,2.70
2019-03-20T00:49:32.144Z,2.60
2019-03-20T00:52:14.032Z,2.70
2019-03-20T00:54:56.144Z,2.70
2019-03-20T00:57:40.862Z,2.60
2019-03-20T01:00:22.043Z,2.70
2019-03-20T01:03:03.903Z,2.60
2019-03-20T01:05:46.924Z,2.60
2019-03-20T01:08:29.572Z,2.50
2019-03-20T01:11:11.652Z,2.60
2019-03-20T01:13:53.779Z,2.60
2019-03-20T01:16:35.920Z,2.60
2019-03-20T01:19:17.731Z,2.60
2019-03-20T01:21:59.499Z,2.60
2019-03-20T01:24:41.467Z,2.50
2019-03-20T01:27:23.436Z,2.50
2019-03-20T01:30:05.435Z,2.50
2019-03-20T01:32:47.332Z,2.50
2019-03-20T01:35:29.267Z,2.40
2019-03-20T01:38:11.135Z,2.40
2019-03-20T01:40:52.693Z,2.40
2019-03-20T01:43:35.056Z,2.40
2019-03-20T01:46:16.855Z,2.40
2019-03-20T01:48:58.644Z,2.40
2019-03-20T01:51:40.771Z,2.40
2019-03-20T01:54:22.555Z,2.40
2019-03-20T01:57:04.693Z,2.30
2019-03-20T01:59:46.463Z,2.30
2019-03-20T02:02:28.693Z,2.30
2019-03-20T02:05:10.767Z,2.40
2019-03-20T02:07:53.840Z,2.20
2019-03-20T02:10:36.047Z,2.30
2019-03-20T02:13:17.859Z,2.30
2019-03-20T02:15:59.985Z,2.20
2019-03-20T02:18:42.150Z,2.20
2019-03-20T02:21:23.912Z,2.10
2019-03-20T02:24:05.931Z,2.10
2019-03-20T02:26:47.896Z,2.20
2019-03-20T02:29:29.895Z,2.00
2019-03-20T02:32:11.798Z,1.90
2019-03-20T02:34:53.709Z,1.80
2019-03-20T02:37:35.760Z,1.80
2019-03-20T02:40:17.801Z,1.70
2019-03-20T02:42:59.764Z,1.80
2019-03-20T02:45:41.680Z,1.70
2019-03-20T02:48:25.549Z,1.70
2019-03-20T02:51:07.488Z,1.80
2019-03-20T02:53:49.406Z,1.70
2019-03-20T02:56:31.416Z,1.60
2019-03-20T02:59:13.388Z,1.60
2019-03-20T03:01:55.397Z,1.50
2019-03-20T03:04:37.529Z,1.40
2019-03-20T03:07:19.277Z,1.30
2019-03-20T03:10:01.377Z,1.20
2019-03-20T03:12:43.344Z,1.10
2019-03-20T03:15:25.201Z,1.10
2019-03-20T03:18:06.954Z,1.10
2019-03-20T03:20:34.534Z,1.00
2019-03-20T03:23:15.804Z,1.00
2019-03-20T03:25:56.974Z,1.00
2019-03-20T03:28:39.019Z,1.10
2019-03-20T03:31:21.038Z,1.10
2019-03-20T03:34:02.821Z,1.00
2019-03-20T03:36:44.939Z,1.10
2019-03-20T03:39:12.510Z,0.90
2019-03-20T03:41:54.416Z,1.00
2019-03-20T03:44:36.317Z,1.00
2019-03-20T03:47:18.065Z,1.00
2019-03-20T03:49:59.924Z,0.90
2019-03-20T03:52:41.935Z,1.00
2019-03-20T03:55:23.728Z,1.10
2019-03-20T03:58:06.816Z,1.00
2019-03-20T04:00:48.742Z,0.90
2019-03-20T04:03:30.822Z,0.80
2019-03-20T04:06:12.561Z,0.80
2019-03-20T04:08:54.428Z,0.70
2019-03-20T04:11:35.521Z,0.60
2019-03-20T04:14:17.581Z,0.50
2019-03-20T04:16:59.413Z,0.50
2019-03-20T04:19:42.281Z,0.40
2019-03-20T04:22:24.125Z,0.30
2019-03-20T04:25:05.908Z,0.40
2019-03-20T04:27:47.905Z,0.40
2019-03-20T04:30:29.702Z,0.30
2019-03-20T04:33:11.660Z,0.30
2019-03-20T04:35:53.564Z,0.30
2019-03-20T04:38:21.223Z,0.20
2019-03-20T04:41:03.433Z,0.30
2019-03-20T04:43:45.217Z,0.30
2019-03-20T04:46:28.204Z,0.30
2019-03-20T04:49:10.244Z,0.20
2019-03-20T04:51:51.401Z,0.40
2019-03-20T04:54:33.319Z,0.40
2019-03-20T04:57:15.137Z,0.20
2019-03-20T04:59:57.275Z,0.10
2019-03-20T05:02:39.327Z,0.10
2019-03-20T05:05:21.319Z,-0.10
2019-03-20T05:08:03.336Z,-0.20
2019-03-20T05:10:45.258Z,-0.30
2019-03-20T05:13:27.265Z,-0.30
2019-03-20T05:16:10.312Z,-0.40
2019-03-20T05:18:52.281Z,-0.30
2019-03-20T05:21:34.440Z,-0.30
2019-03-20T05:24:16.395Z,-0.30
2019-03-20T05:26:58.327Z,-0.10
2019-03-20T05:29:40.315Z,-0.30
2019-03-20T05:32:22.172Z,-0.20
2019-03-20T05:35:04.001Z,-0.40
2019-03-20T05:37:45.993Z,-0.30
2019-03-20T05:40:27.779Z,-0.40
2019-03-20T05:43:09.673Z,-0.50
2019-03-20T05:45:51.723Z,-0.60
2019-03-20T05:48:33.382Z,-0.50
2019-03-20T05:51:15.355Z,-0.50
2019-03-20T05:53:57.196Z,-0.40
2019-03-20T05:56:40.044Z,-0.40
2019-03-20T05:59:22.132Z,-0.40
2019-03-20T06:02:03.868Z,-0.50
2019-03-20T06:04:47.812Z,-0.50
2019-03-20T06:07:29.824Z,-0.50
2019-03-20T06:10:11.769Z,-0.30
2019-03-20T06:12:53.724Z,-0.40
2019-03-20T06:15:35.688Z,-0.40
2019-03-20T06:18:17.584Z,-0.30
2019-03-20T06:21:00.425Z,-0.20
2019-03-20T06:23:42.320Z,0.00
2019-03-20T06:26:24.170Z,-0.20
2019-03-20T06:29:06.116Z,-0.10
2019-03-20T06:31:48.048Z,-0.10
2019-03-20T06:34:29.884Z,-0.10
2019-03-20T06:36:57.576Z,-0.10
2019-03-20T06:39:39.549Z,-0.10
2019-03-20T06:42:21.389Z,-0.10
2019-03-20T06:45:05.176Z,-0.10
2019-03-20T06:47:47.181Z,-0.10
2019-03-20T06:50:29.170Z,0.00
2019-03-20T06:53:11.213Z,0.10
2019-03-20T06:55:53.204Z,0.10
2019-03-20T06:58:35.088Z,0.40
2019-03-20T07:01:16.807Z,0.40
2019-03-20T07:03:58.750Z,0.30
2019-03-20T07:06:40.797Z,0.40
2019-03-20T07:09:22.823Z,0.30
2019-03-20T07:12:04.788Z,0.60
2019-03-20T07:14:45.980Z,0.50
2019-03-20T07:17:27.828Z,0.50
2019-03-20T07:20:09.791Z,0.50
2019-03-20T07:22:51.964Z,0.60
2019-03-20T07:25:34.220Z,0.60
2019-03-20T07:28:16.128Z,0.70
2019-03-20T07:30:58.147Z,0.70
2019-03-20T07:33:39.965Z,0.80
2019-03-20T07:36:41.084Z,1.00
2019-03-20T07:39:22.160Z,1.00
2019-03-20T07:42:04.020Z,1.10
2019-03-20T07:44:46.200Z,1.20
2019-03-20T07:47:28.248Z,1.30
2019-03-20T07:50:10.244Z,1.30
2019-03-20T07:52:52.120Z,1.30
2019-03-20T07:55:34.181Z,1.60
2019-03-20T07:58:16.116Z,1.60
2019-03-20T08:00:58.110Z,1.80
2019-03-20T08:03:39.141Z,1.90
2019-03-20T08:06:20.412Z,2.20
2019-03-20T08:09:02.331Z,2.40
2019-03-20T08:11:44.311Z,2.50
2019-03-20T08:14:26.176Z,2.60
2019-03-20T08:17:07.403Z,2.70
2019-03-20T08:19:49.203Z,3.00
2019-03-20T08:22:33.040Z,3.10
2019-03-20T08:25:15.865Z,3.30
2019-03-20T08:27:57.707Z,3.60
2019-03-20T08:30:39.668Z,3.80
2019-03-20T08:33:21.578Z,3.90
2019-03-20T08:36:03.444Z,4.00
2019-03-20T08:38:45.194Z,4.10
2019-03-20T08:41:27.095Z,4.20
2019-03-20T08:44:08.927Z,4.30
2019-03-20T08:46:50.887Z,4.20
2019-03-20T08:49:32.926Z,4.40
2019-03-20T08:52:15.088Z,4.40
2019-03-20T08:54:56.968Z,4.60
2019-03-20T08:57:38.981Z,4.60
2019-03-20T09:00:20.874Z,4.60
2019-03-20T09:03:03.005Z,4.80
2019-03-20T09:05:44.677Z,4.70
2019-03-20T09:08:29.820Z,4.80
2019-03-20T09:11:10.561Z,4.80
2019-03-20T09:13:52.644Z,4.70
2019-03-20T09:16:34.388Z,4.70
2019-03-20T09:19:16.283Z,4.60
2019-03-20T09:21:58.116Z,4.60
2019-03-20T09:24:40.339Z,4.80
2019-03-20T09:27:22.233Z,5.10
2019-03-20T09:30:04.407Z,5.20
2019-03-20T09:32:46.165Z,5.40
2019-03-20T09:35:28.113Z,5.50
2019-03-20T09:38:09.123Z,5.60
2019-03-20T09:40:52.019Z,5.80
2019-03-20T09:43:33.989Z,6.10
2019-03-20T09:46:15.944Z,6.30
2019-03-20T09:48:57.761Z,6.40
2019-03-20T09:51:39.549Z,6.50
2019-03-20T09:54:21.510Z,6.70
2019-03-20T09:57:03.358Z,7.00
2019-03-20T09:59:46.025Z,7.10
2019-03-20T10:02:28.064Z,7.30
2019-03-20T10:05:09.162Z,7.40
2019-03-20T10:07:51.199Z,7.30
2019-03-20T10:10:34.246Z,7.50
2019-03-20T10:13:16.144Z,7.70
2019-03-20T10:16:00.000Z,7.80
2019-03-20T10:18:41.985Z,7.90
2019-03-20T10:21:23.757Z,8.20
2019-03-20T10:24:05.628Z,8.20
2019-03-20T10:26:47.604Z,8.30
2019-03-20T10:29:29.726Z,8.40
2019-03-20T10:32:11.595Z,8.50
2019-03-20T10:34:53.632Z,8.50
2019-03-20T10:37:35.457Z,8.50
2019-03-20T10:40:17.536Z,8.60
2019-03-20T10:42:59.389Z,8.60
2019-03-20T10:45:41.247Z,8.40
2019-03-20T10:48:08.791Z,8.50
2019-03-20T10:50:50.896Z,8.60
2019-03-20T10:53:33.011Z,8.80
2019-03-20T10:56:14.924Z,8.80
2019-03-20T10:58:56.812Z,9.00
2019-03-20T11:01:42.770Z,9.10
2019-03-20T11:04:23.737Z,9.60
2019-03-20T11:07:05.545Z,9.60
2019-03-20T11:09:33.243Z,9.90
2019-03-20T11:12:15.291Z,10.00
2019-03-20T11:14:57.186Z,10.10
2019-03-20T11:17:39.139Z,10.10
2019-03-20T11:20:21.035Z,10.20
2019-03-20T11:23:02.805Z,10.30
2019-03-20T11:25:44.779Z,10.30
2019-03-20T11:28:26.919Z,10.30
2019-03-20T11:31:08.943Z,10.20
2019-03-20T11:33:51.015Z,10.20
2019-03-20T11:36:33.212Z,10.30
2019-03-20T11:39:15.203Z,10.50
2019-03-20T11:41:57.011Z,10.60
2019-03-20T11:44:38.940Z,10.80
2019-03-20T11:47:20.776Z,10.90
2019-03-20T11:49:48.381Z,10.80
2019-03-20T11:52:38.457Z,10.70
2019-03-20T11:55:20.443Z,10.70
2019-03-20T11:58:02.314Z,10.80
2019-03-20T12:00:44.235Z,10.80
2019-03-20T12:03:26.209Z,10.90
2019-03-20T12:06:08.207Z,10.90
2019-03-20T12:08:49.282Z,10.80
2019-03-20T12:11:31.311Z,10.90
2019-03-20T12:14:13.488Z,10.90
2019-03-20T12:16:55.331Z,10.70
2019-03-20T12:19:44.893Z,10.60
2019-03-20T12:22:20.317Z,10.60
2019-03-20T12:25:02.221Z,10.90
2019-03-20T12:27:44.328Z,10.90
2019-03-20T12:30:26.321Z,10.90
2019-03-20T12:33:09.194Z,10.90
2019-03-20T12:35:51.113Z,10.90
2019-03-20T12:38:33.127Z,11.00
2019-03-20T12:41:15.004Z,11.00
2019-03-20T12:43:57.012Z,10.90
2019-03-20T12:46:41.740Z,11.00
2019-03-20T12:49:22.038Z,10.90
2019-03-20T12:52:04.741Z,10.80
2019-03-20T12:54:46.749Z,10.80
2019-03-20T12:57:28.524Z,10.80
2019-03-20T13:00:10.458Z,10.50
2019-03-20T13:02:52.200Z,10.80
2019-03-20T13:05:34.008Z,10.70
2019-03-20T13:08:15.952Z,10.80
2019-03-20T13:10:57.976Z,10.80
2019-03-20T13:13:39.687Z,11.00
2019-03-20T13:16:22.408Z,11.00
2019-03-20T13:19:04.332Z,11.00
2019-03-20T13:24:30.648Z,11.00
2019-03-20T13:27:12.639Z,10.90
2019-03-20T13:29:54.663Z,10.70
2019-03-20T13:32:36.729Z,10.90
2019-03-20T13:35:18.763Z,10.90
2019-03-20T13:38:00.836Z,11.00
2019-03-20T13:40:42.655Z,11.00
2019-03-20T13:43:24.742Z,11.10
2019-03-20T13:46:06.704Z,11.10
2019-03-20T13:49:07.975Z,11.10
2019-03-20T13:51:50.087Z,11.00
2019-03-20T13:54:31.032Z,10.90
2019-03-20T13:57:12.880Z,11.00
2019-03-20T13:59:54.939Z,11.00
2019-03-20T14:02:36.776Z,11.10
2019-03-20T14:05:18.788Z,11.10
2019-03-20T14:07:59.679Z,11.10
2019-03-20T14:10:50.323Z,11.10
2019-03-20T14:13:25.675Z,11.20
2019-03-20T14:16:07.577Z,11.20
2019-03-20T14:18:49.514Z,11.20
2019-03-20T14:21:31.518Z,11.10
2019-03-20T14:24:13.431Z,11.10
2019-03-20T14:26:54.577Z,11.30
2019-03-20T14:29:36.607Z,11.20
2019-03-20T14:32:18.508Z,11.10
2019-03-20T14:35:00.423Z,11.00
2019-03-20T14:37:42.280Z,11.10
2019-03-20T14:40:31.658Z,11.10
2019-03-20T14:43:08.465Z,11.20
2019-03-20T14:45:50.353Z,11.20
2019-03-20T14:48:31.313Z,11.10
2019-03-20T14:51:13.284Z,11.20
2019-03-20T14:53:55.287Z,11.10
2019-03-20T14:56:37.251Z,11.10
2019-03-20T14:59:18.324Z,11.10
2019-03-20T15:01:59.484Z,11.10
2019-03-20T15:04:41.571Z,11.20
2019-03-20T15:07:23.541Z,11.20
2019-03-20T15:10:05.407Z,11.00
2019-03-20T15:12:47.319Z,10.90
2019-03-20T15:15:31.271Z,10.90
2019-03-20T15:18:13.303Z,11.00
2019-03-20T15:20:55.299Z,11.00
2019-03-20T15:23:38.129Z,11.00
2019-03-20T15:26:19.875Z,11.10
2019-03-20T15:29:02.052Z,11.00
2019-03-20T15:31:43.995Z,11.00
2019-03-20T15:34:27.787Z,10.90
2019-03-20T15:37:09.965Z,10.90
2019-03-20T15:39:52.160Z,10.90
2019-03-20T15:42:33.911Z,10.90
2019-03-20T15:45:15.961Z,10.90
2019-03-20T15:47:58.845Z,11.00
2019-03-20T15:50:40.005Z,10.90
2019-03-20T15:53:21.922Z,10.80
2019-03-20T15:56:04.099Z,10.80
2019-03-20T15:58:46.169Z,10.90
2019-03-20T16:01:28.256Z,10.80
2019-03-20T16:04:10.618Z,10.60
2019-03-20T16:06:52.579Z,10.60
2019-03-20T16:09:34.821Z,10.50
2019-03-20T16:12:16.671Z,10.50
2019-03-20T16:14:58.668Z,10.50
2019-03-20T16:17:40.539Z,10.40
2019-03-20T16:20:22.316Z,10.40
2019-03-20T16:23:04.162Z,10.40
2019-03-20T16:25:47.104Z,10.30
2019-03-20T16:28:30.977Z,10.30
2019-03-20T16:31:12.735Z,10.10
2019-03-20T16:33:55.843Z,10.20
2019-03-20T16:36:37.713Z,10.20
2019-03-20T16:39:19.478Z,10.10
2019-03-20T16:42:01.420Z,10.00
2019-03-20T16:44:43.548Z,9.90
2019-03-20T16:47:25.384Z,9.80
2019-03-20T16:50:07.380Z,9.70
2019-03-20T16:52:49.248Z,9.50
2019-03-20T16:55:31.149Z,9.50
2019-03-20T16:58:13.156Z,9.30
2019-03-20T17:00:55.056Z,9.20
2019-03-20T17:03:37.013Z,9.00
2019-03-20T17:06:19.007Z,8.80
2019-03-20T17:09:01.026Z,8.90
2019-03-20T17:11:45.048Z,8.80
2019-03-20T17:14:27.000Z,8.60
2019-03-20T17:17:08.996Z,8.50
2019-03-20T17:19:50.970Z,8.30
2019-03-20T17:22:41.712Z,8.20
2019-03-20T17:25:16.801Z,8.00
2019-03-20T17:27:58.635Z,7.90
2019-03-20T17:30:40.479Z,7.80
2019-03-20T17:33:22.258Z,7.80
2019-03-20T17:36:04.186Z,7.60
2019-03-20T17:38:45.879Z,7.40
2019-03-20T17:41:36.415Z,7.40
2019-03-20T17:44:11.824Z,7.10
2019-03-20T17:46:53.661Z,7.10
2019-03-20T17:49:35.588Z,6.90
2019-03-20T17:52:17.633Z,6.80
2019-03-20T17:54:59.600Z,6.70
2019-03-20T17:57:41.497Z,6.70
2019-03-20T18:00:28.423Z,6.70
2019-03-20T18:03:10.360Z,6.60
2019-03-20T18:05:52.311Z,6.40
2019-03-20T18:08:34.333Z,6.40
2019-03-20T18:11:16.231Z,6.30
2019-03-20T18:13:58.067Z,6.30
2019-03-20T18:16:39.896Z,6.10
2019-03-20T18:19:21.714Z,6.00
2019-03-20T18:22:03.620Z,6.00
2019-03-20T18:24:45.702Z,5.80
2019-03-20T18:27:27.497Z,5.80
2019-03-20T18:30:09.439Z,5.70
2019-03-20T18:32:51.318Z,5.60
2019-03-20T18:35:33.226Z,5.50
2019-03-20T18:38:15.076Z,5.50
2019-03-20T18:40:56.847Z,5.30
2019-03-20T18:43:38.820Z,5.40
2019-03-20T18:46:19.836Z,5.30
2019-03-20T18:49:02.931Z,5.30
2019-03-20T18:51:44.793Z,5.40
2019-03-20T18:54:26.660Z,5.10
2019-03-20T18:57:08.672Z,5.10
2019-03-20T18:59:50.364Z,4.90
2019-03-20T19:02:32.311Z,4.80
2019-03-20T19:05:14.243Z,4.70
2019-03-20T19:07:56.243Z,4.60
2019-03-20T19:10:37.956Z,4.60
2019-03-20T19:13:20.029Z,4.60
2019-03-20T19:16:01.724Z,4.40
2019-03-20T19:18:43.607Z,4.40
2019-03-20T19:21:25.577Z,4.40
2019-03-20T19:24:07.603Z,4.40
2019-03-20T19:26:49.315Z,4.40
2019-03-20T19:29:31.271Z,4.40
2019-03-20T19:35:41.847Z,4.20
2019-03-20T19:41:27.108Z,4.00
2019-03-20T19:44:09.076Z,4.00
2019-03-20T19:46:51.064Z,4.00
2019-03-20T19:49:33.197Z,3.90
2019-03-20T19:52:15.164Z,4.00
2019-03-20T19:54:57.089Z,3.80
2019-03-20T19:57:41.082Z,3.70
2019-03-20T20:00:23.082Z,3.80
2019-03-20T20:03:04.886Z,3.60
2019-03-20T20:05:46.943Z,3.60
2019-03-20T20:08:28.913Z,3.60
2019-03-20T20:11:10.736Z,3.50
2019-03-20T20:13:53.033Z,3.50
2019-03-20T20:16:34.804Z,3.50
2019-03-20T20:19:02.372Z,3.40
2019-03-20T20:21:52.484Z,3.30
2019-03-20T20:24:34.745Z,3.30
2019-03-20T20:27:16.877Z,3.20
2019-03-20T20:29:59.108Z,3.20
2019-03-20T20:32:40.884Z,3.20
2019-03-20T20:35:22.147Z,3.00
2019-03-20T20:38:03.132Z,3.00
2019-03-20T20:40:45.055Z,3.00
2019-03-20T20:43:26.965Z,3.00
2019-03-20T20:46:08.711Z,3.00
2019-03-20T20:48:50.629Z,2.90
2019-03-20T20:51:32.588Z,3.00
2019-03-20T20:54:14.579Z,2.90
2019-03-20T20:56:56.597Z,3.00
2019-03-20T20:59:38.479Z,3.00
2019-03-20T21:02:20.581Z,2.90
2019-03-20T21:05:02.276Z,3.00
2019-03-20T21:07:45.083Z,2.90
2019-03-20T21:10:26.883Z,2.80
2019-03-20T21:13:08.875Z,2.80
2019-03-20T21:15:50.831Z,2.80
2019-03-20T21:18:32.609Z,2.70
2019-03-20T21:21:14.607Z,2.80
2019-03-20T21:23:56.428Z,2.60
2019-03-20T21:26:38.411Z,2.60
2019-03-20T21:29:20.387Z,2.50
2019-03-20T21:32:02.561Z,2.50
2019-03-20T21:34:44.304Z,2.40
2019-03-20T21:37:26.145Z,2.20
2019-03-20T21:40:07.979Z,2.20
2019-03-20T21:42:50.040Z,2.20
2019-03-20T21:45:31.871Z,2.30
2019-03-20T21:48:13.755Z,2.30
2019-03-20T21:50:55.717Z,2.30
2019-03-20T21:53:37.837Z,2.30
2019-03-20T21:56:20.041Z,2.30
2019-03-20T21:59:01.973Z,2.20
2019-03-20T22:01:44.011Z,2.20
2019-03-20T22:04:25.996Z,2.30
2019-03-20T22:07:07.735Z,2.10
2019-03-20T22:09:49.984Z,2.00
2019-03-20T22:12:32.977Z,2.20
2019-03-20T22:15:14.558Z,2.20
2019-03-20T22:17:57.036Z,2.10
2019-03-20T22:20:39.049Z,2.20
2019-03-20T22:23:21.020Z,2.00
2019-03-20T22:26:02.861Z,2.00
2019-03-20T22:28:44.811Z,2.10
2019-03-20T22:31:26.950Z,2.00
2019-03-20T22:34:08.825Z,2.10
2019-03-20T22:36:50.627Z,2.10
2019-03-20T22:39:32.526Z,2.10
2019-03-20T22:42:14.810Z,2.00
2019-03-20T22:44:57.595Z,2.10
2019-03-20T22:47:38.603Z,1.90
2019-03-20T22:50:20.542Z,1.90
2019-03-20T22:53:02.360Z,1.90
2019-03-20T22:55:44.388Z,1.90
2019-03-20T22:58:26.439Z,1.90
2019-03-20T23:01:27.584Z,1.90
2019-03-20T23:04:09.396Z,1.90
2019-03-20T23:06:51.361Z,1.80
2019-03-20T23:09:32.428Z,1.70
2019-03-20T23:12:17.906Z,1.70
2019-03-20T23:15:00.497Z,1.70
2019-03-20T23:17:42.535Z,1.70
2019-03-20T23:20:24.638Z,1.70
2019-03-20T23:23:06.469Z,1.70
2019-03-20T23:25:48.272Z,1.60
2019-03-20T23:28:30.123Z,1.70
2019-03-20T23:31:12.005Z,1.70
2019-03-20T23:33:53.888Z,1.60
2019-03-20T23:36:35.927Z,1.60
2019-03-20T23:39:18.952Z,1.50
2019-03-20T23:41:59.964Z,1.60
2019-03-20T23:44:41.929Z,1.60
2019-03-20T23:47:43.121Z,1.50
2019-03-20T23:50:24.181Z,1.50
2019-03-20T23:53:06.079Z,1.50
2019-03-20T23:55:47.959Z,1.40
2019-03-20T23:58:29.823Z,1.40
